sensor_id;sensor_type;location;lat;lon;timestamp;P1;durP1;ratioP1;P2;durP2;ratioP2
66095;SDS011;53861;53.422;14.530;2024-03-08T00:00:49;28.95;;;11.65;;
66095;SDS011;53861;53.422;14.530;2024-03-08T00:03:17;30.83;;;11.52;;
66095;SDS011;53861;53.422;14.530;2024-03-08T00:05:44;24.27;;;11.20;;
66095;SDS011;53861;53.422;14.530;2024-03-08T00:08:11;27.17;;;11.27;;
66095;SDS011;53861;53.422;14.530;2024-03-08T00:10:38;25.50;;;11.30;;
66095;SDS011;53861;53.422;14.530;2024-03-08T00:13:05;28.67;;;11.82;;
66095;SDS011;53861;53.422;14.530;2024-03-08T00:15:33;35.38;;;11.68;;
66095;SDS011;53861;53.422;14.530;2024-03-08T00:18:01;26.88;;;11.77;;
66095;SDS011;53861;53.422;14.530;2024-03-08T00:20:29;24.05;;;10.93;;
66095;SDS011;53861;53.422;14.530;2024-03-08T00:22:56;30.08;;;11.48;;
66095;SDS011;53861;53.422;14.530;2024-03-08T00:25:23;28.70;;;11.40;;
66095;SDS011;53861;53.422;14.530;2024-03-08T00:27:51;29.30;;;10.55;;
66095;SDS011;53861;53.422;14.530;2024-03-08T00:30:21;28.02;;;11.15;;
66095;SDS011;53861;53.422;14.530;2024-03-08T00:32:50;28.42;;;11.82;;
66095;SDS011;53861;53.422;14.530;2024-03-08T00:35:19;27.90;;;11.90;;
66095;SDS011;53861;53.422;14.530;2024-03-08T00:37:46;30.80;;;12.30;;
66095;SDS011;53861;53.422;14.530;2024-03-08T00:40:13;30.63;;;13.40;;
66095;SDS011;53861;53.422;14.530;2024-03-08T00:42:41;29.40;;;12.63;;
66095;SDS011;53861;53.422;14.530;2024-03-08T00:45:09;32.58;;;12.30;;
66095;SDS011;53861;53.422;14.530;2024-03-08T00:47:37;27.65;;;11.93;;
66095;SDS011;53861;53.422;14.530;2024-03-08T00:50:04;26.75;;;12.02;;
66095;SDS011;53861;53.422;14.530;2024-03-08T00:52:33;31.50;;;12.75;;
66095;SDS011;53861;53.422;14.530;2024-03-08T00:55:00;29.30;;;12.02;;
66095;SDS011;53861;53.422;14.530;2024-03-08T00:57:28;30.88;;;12.48;;
66095;SDS011;53861;53.422;14.530;2024-03-08T00:59:55;32.40;;;13.43;;
66095;SDS011;53861;53.422;14.530;2024-03-08T01:02:23;32.83;;;12.48;;
66095;SDS011;53861;53.422;14.530;2024-03-08T01:04:50;32.13;;;12.52;;
66095;SDS011;53861;53.422;14.530;2024-03-08T01:07:17;26.90;;;11.52;;
66095;SDS011;53861;53.422;14.530;2024-03-08T01:09:46;31.50;;;12.98;;
66095;SDS011;53861;53.422;14.530;2024-03-08T01:12:14;29.90;;;11.98;;
66095;SDS011;53861;53.422;14.530;2024-03-08T01:14:41;28.98;;;12.57;;
66095;SDS011;53861;53.422;14.530;2024-03-08T01:17:09;32.90;;;12.50;;
66095;SDS011;53861;53.422;14.530;2024-03-08T01:19:36;32.55;;;12.23;;
66095;SDS011;53861;53.422;14.530;2024-03-08T01:22:03;30.50;;;13.18;;
66095;SDS011;53861;53.422;14.530;2024-03-08T01:24:30;34.55;;;13.27;;
66095;SDS011;53861;53.422;14.530;2024-03-08T01:26:59;35.28;;;13.75;;
66095;SDS011;53861;53.422;14.530;2024-03-08T01:29:27;31.52;;;13.20;;
66095;SDS011;53861;53.422;14.530;2024-03-08T01:31:55;36.97;;;13.60;;
66095;SDS011;53861;53.422;14.530;2024-03-08T01:34:22;33.30;;;12.88;;
66095;SDS011;53861;53.422;14.530;2024-03-08T01:36:49;37.53;;;13.82;;
66095;SDS011;53861;53.422;14.530;2024-03-08T01:39:16;30.40;;;11.95;;
66095;SDS011;53861;53.422;14.530;2024-03-08T01:41:44;31.90;;;12.75;;
66095;SDS011;53861;53.422;14.530;2024-03-08T01:44:12;28.88;;;12.75;;
66095;SDS011;53861;53.422;14.530;2024-03-08T01:46:43;30.05;;;12.27;;
66095;SDS011;53861;53.422;14.530;2024-03-08T01:49:11;33.53;;;12.50;;
66095;SDS011;53861;53.422;14.530;2024-03-08T01:51:40;34.38;;;13.43;;
66095;SDS011;53861;53.422;14.530;2024-03-08T01:54:08;30.45;;;12.65;;
66095;SDS011;53861;53.422;14.530;2024-03-08T01:56:38;30.13;;;13.95;;
66095;SDS011;53861;53.422;14.530;2024-03-08T01:59:06;38.28;;;14.15;;
66095;SDS011;53861;53.422;14.530;2024-03-08T02:01:35;32.25;;;13.20;;
66095;SDS011;53861;53.422;14.530;2024-03-08T02:04:02;36.83;;;13.60;;
66095;SDS011;53861;53.422;14.530;2024-03-08T02:06:31;28.92;;;12.20;;
66095;SDS011;53861;53.422;14.530;2024-03-08T02:08:58;35.90;;;14.25;;
66095;SDS011;53861;53.422;14.530;2024-03-08T02:11:31;33.25;;;13.52;;
66095;SDS011;53861;53.422;14.530;2024-03-08T02:13:59;29.25;;;12.95;;
66095;SDS011;53861;53.422;14.530;2024-03-08T02:16:26;32.55;;;13.10;;
66095;SDS011;53861;53.422;14.530;2024-03-08T02:18:54;33.83;;;13.77;;
66095;SDS011;53861;53.422;14.530;2024-03-08T02:21:23;35.08;;;13.77;;
66095;SDS011;53861;53.422;14.530;2024-03-08T02:23:50;30.55;;;13.25;;
66095;SDS011;53861;53.422;14.530;2024-03-08T02:26:18;33.20;;;13.45;;
66095;SDS011;53861;53.422;14.530;2024-03-08T02:28:45;34.78;;;14.55;;
66095;SDS011;53861;53.422;14.530;2024-03-08T02:31:13;39.63;;;16.00;;
66095;SDS011;53861;53.422;14.530;2024-03-08T02:33:40;37.28;;;14.07;;
66095;SDS011;53861;53.422;14.530;2024-03-08T02:36:07;33.83;;;14.30;;
66095;SDS011;53861;53.422;14.530;2024-03-08T02:38:36;35.20;;;14.27;;
66095;SDS011;53861;53.422;14.530;2024-03-08T02:41:03;36.45;;;14.25;;
66095;SDS011;53861;53.422;14.530;2024-03-08T02:43:31;32.72;;;13.30;;
66095;SDS011;53861;53.422;14.530;2024-03-08T02:45:59;29.05;;;13.00;;
66095;SDS011;53861;53.422;14.530;2024-03-08T02:48:26;32.20;;;13.20;;
66095;SDS011;53861;53.422;14.530;2024-03-08T02:50:54;30.00;;;13.50;;
66095;SDS011;53861;53.422;14.530;2024-03-08T02:53:21;31.25;;;12.82;;
66095;SDS011;53861;53.422;14.530;2024-03-08T02:55:51;32.65;;;13.20;;
66095;SDS011;53861;53.422;14.530;2024-03-08T02:58:18;29.05;;;13.13;;
66095;SDS011;53861;53.422;14.530;2024-03-08T03:00:45;36.75;;;14.27;;
66095;SDS011;53861;53.422;14.530;2024-03-08T03:03:12;34.85;;;13.77;;
66095;SDS011;53861;53.422;14.530;2024-03-08T03:05:40;35.85;;;15.10;;
66095;SDS011;53861;53.422;14.530;2024-03-08T03:08:07;31.00;;;13.05;;
66095;SDS011;53861;53.422;14.530;2024-03-08T03:10:35;29.02;;;13.70;;
66095;SDS011;53861;53.422;14.530;2024-03-08T03:13:04;33.58;;;13.55;;
66095;SDS011;53861;53.422;14.530;2024-03-08T03:15:31;33.83;;;12.98;;
66095;SDS011;53861;53.422;14.530;2024-03-08T03:17:59;36.78;;;13.38;;
66095;SDS011;53861;53.422;14.530;2024-03-08T03:20:27;37.55;;;14.95;;
66095;SDS011;53861;53.422;14.530;2024-03-08T03:22:58;38.85;;;14.48;;
66095;SDS011;53861;53.422;14.530;2024-03-08T03:25:27;34.55;;;13.85;;
66095;SDS011;53861;53.422;14.530;2024-03-08T03:27:59;32.42;;;13.02;;
66095;SDS011;53861;53.422;14.530;2024-03-08T03:30:28;31.80;;;13.50;;
66095;SDS011;53861;53.422;14.530;2024-03-08T03:32:58;31.38;;;13.05;;
66095;SDS011;53861;53.422;14.530;2024-03-08T03:35:27;34.25;;;13.45;;
66095;SDS011;53861;53.422;14.530;2024-03-08T03:37:54;29.92;;;13.43;;
66095;SDS011;53861;53.422;14.530;2024-03-08T03:40:32;36.75;;;14.65;;
66095;SDS011;53861;53.422;14.530;2024-03-08T03:43:00;31.98;;;12.85;;
66095;SDS011;53861;53.422;14.530;2024-03-08T03:45:29;29.88;;;12.65;;
66095;SDS011;53861;53.422;14.530;2024-03-08T03:48:01;41.65;;;14.15;;
66095;SDS011;53861;53.422;14.530;2024-03-08T03:50:29;32.30;;;12.98;;
66095;SDS011;53861;53.422;14.530;2024-03-08T03:52:57;34.20;;;13.10;;
66095;SDS011;53861;53.422;14.530;2024-03-08T03:55:24;32.38;;;13.85;;
66095;SDS011;53861;53.422;14.530;2024-03-08T03:57:52;30.90;;;12.60;;
66095;SDS011;53861;53.422;14.530;2024-03-08T04:00:19;28.85;;;11.80;;
66095;SDS011;53861;53.422;14.530;2024-03-08T04:02:48;36.15;;;13.95;;
66095;SDS011;53861;53.422;14.530;2024-03-08T04:05:16;31.38;;;12.57;;
66095;SDS011;53861;53.422;14.530;2024-03-08T04:07:43;33.30;;;13.18;;
66095;SDS011;53861;53.422;14.530;2024-03-08T04:10:11;30.80;;;13.40;;
66095;SDS011;53861;53.422;14.530;2024-03-08T04:12:38;31.33;;;13.13;;
66095;SDS011;53861;53.422;14.530;2024-03-08T04:15:06;33.80;;;12.63;;
66095;SDS011;53861;53.422;14.530;2024-03-08T04:17:34;34.58;;;12.25;;
66095;SDS011;53861;53.422;14.530;2024-03-08T04:20:04;31.48;;;12.95;;
66095;SDS011;53861;53.422;14.530;2024-03-08T04:22:35;32.15;;;13.35;;
66095;SDS011;53861;53.422;14.530;2024-03-08T04:25:03;33.72;;;13.48;;
66095;SDS011;53861;53.422;14.530;2024-03-08T04:27:31;31.63;;;12.45;;
66095;SDS011;53861;53.422;14.530;2024-03-08T04:29:59;30.88;;;13.48;;
66095;SDS011;53861;53.422;14.530;2024-03-08T04:32:27;32.15;;;13.38;;
66095;SDS011;53861;53.422;14.530;2024-03-08T04:34:55;29.65;;;12.15;;
66095;SDS011;53861;53.422;14.530;2024-03-08T04:37:23;35.10;;;13.80;;
66095;SDS011;53861;53.422;14.530;2024-03-08T04:39:51;35.10;;;13.57;;
66095;SDS011;53861;53.422;14.530;2024-03-08T04:42:19;28.90;;;12.73;;
66095;SDS011;53861;53.422;14.530;2024-03-08T04:44:55;38.85;;;14.50;;
66095;SDS011;53861;53.422;14.530;2024-03-08T04:47:23;31.65;;;13.05;;
66095;SDS011;53861;53.422;14.530;2024-03-08T04:49:51;28.40;;;12.05;;
66095;SDS011;53861;53.422;14.530;2024-03-08T04:52:18;33.78;;;12.60;;
66095;SDS011;53861;53.422;14.530;2024-03-08T04:54:47;38.50;;;13.20;;
66095;SDS011;53861;53.422;14.530;2024-03-08T04:57:14;34.40;;;12.85;;
66095;SDS011;53861;53.422;14.530;2024-03-08T04:59:43;34.22;;;13.27;;
66095;SDS011;53861;53.422;14.530;2024-03-08T05:02:10;38.15;;;13.90;;
66095;SDS011;53861;53.422;14.530;2024-03-08T05:04:38;36.63;;;13.55;;
66095;SDS011;53861;53.422;14.530;2024-03-08T05:07:05;31.98;;;13.30;;
66095;SDS011;53861;53.422;14.530;2024-03-08T05:09:33;33.15;;;13.20;;
66095;SDS011;53861;53.422;14.530;2024-03-08T05:12:03;34.83;;;13.10;;
66095;SDS011;53861;53.422;14.530;2024-03-08T05:14:30;44.28;;;15.27;;
66095;SDS011;53861;53.422;14.530;2024-03-08T05:16:57;33.20;;;13.52;;
66095;SDS011;53861;53.422;14.530;2024-03-08T05:19:25;33.30;;;13.20;;
66095;SDS011;53861;53.422;14.530;2024-03-08T05:21:55;34.97;;;13.43;;
66095;SDS011;53861;53.422;14.530;2024-03-08T05:24:23;33.13;;;13.77;;
66095;SDS011;53861;53.422;14.530;2024-03-08T05:26:50;33.22;;;13.13;;
66095;SDS011;53861;53.422;14.530;2024-03-08T05:29:19;36.60;;;14.75;;
66095;SDS011;53861;53.422;14.530;2024-03-08T05:31:46;38.85;;;15.13;;
66095;SDS011;53861;53.422;14.530;2024-03-08T05:34:15;38.40;;;14.05;;
66095;SDS011;53861;53.422;14.530;2024-03-08T05:36:42;38.92;;;15.27;;
66095;SDS011;53861;53.422;14.530;2024-03-08T05:39:10;33.15;;;13.75;;
66095;SDS011;53861;53.422;14.530;2024-03-08T05:41:37;38.75;;;14.57;;
66095;SDS011;53861;53.422;14.530;2024-03-08T05:44:05;31.42;;;13.30;;
66095;SDS011;53861;53.422;14.530;2024-03-08T05:46:34;36.53;;;14.68;;
66095;SDS011;53861;53.422;14.530;2024-03-08T05:49:02;33.70;;;13.88;;
66095;SDS011;53861;53.422;14.530;2024-03-08T05:51:31;36.75;;;14.00;;
66095;SDS011;53861;53.422;14.530;2024-03-08T05:54:00;36.53;;;14.80;;
66095;SDS011;53861;53.422;14.530;2024-03-08T05:56:28;30.80;;;12.90;;
66095;SDS011;53861;53.422;14.530;2024-03-08T05:58:55;33.60;;;13.15;;
66095;SDS011;53861;53.422;14.530;2024-03-08T06:01:23;34.65;;;13.70;;
66095;SDS011;53861;53.422;14.530;2024-03-08T06:03:53;36.47;;;14.18;;
66095;SDS011;53861;53.422;14.530;2024-03-08T06:06:21;41.25;;;15.32;;
66095;SDS011;53861;53.422;14.530;2024-03-08T06:08:48;35.67;;;13.05;;
66095;SDS011;53861;53.422;14.530;2024-03-08T06:11:18;32.42;;;12.63;;
66095;SDS011;53861;53.422;14.530;2024-03-08T06:13:46;39.17;;;14.82;;
66095;SDS011;53861;53.422;14.530;2024-03-08T06:16:13;36.63;;;13.57;;
66095;SDS011;53861;53.422;14.530;2024-03-08T06:18:41;35.15;;;14.32;;
66095;SDS011;53861;53.422;14.530;2024-03-08T06:21:09;37.25;;;12.95;;
66095;SDS011;53861;53.422;14.530;2024-03-08T06:23:38;29.70;;;11.80;;
66095;SDS011;53861;53.422;14.530;2024-03-08T06:26:05;34.58;;;14.18;;
66095;SDS011;53861;53.422;14.530;2024-03-08T06:28:33;39.53;;;13.30;;
66095;SDS011;53861;53.422;14.530;2024-03-08T06:31:01;28.92;;;12.35;;
66095;SDS011;53861;53.422;14.530;2024-03-08T06:33:29;37.03;;;12.98;;
66095;SDS011;53861;53.422;14.530;2024-03-08T06:35:58;34.72;;;13.35;;
66095;SDS011;53861;53.422;14.530;2024-03-08T06:38:26;28.25;;;12.38;;
66095;SDS011;53861;53.422;14.530;2024-03-08T06:40:53;31.63;;;13.38;;
66095;SDS011;53861;53.422;14.530;2024-03-08T06:43:21;36.15;;;13.23;;
66095;SDS011;53861;53.422;14.530;2024-03-08T06:45:50;32.53;;;13.00;;
66095;SDS011;53861;53.422;14.530;2024-03-08T06:48:20;35.33;;;13.00;;
66095;SDS011;53861;53.422;14.530;2024-03-08T06:50:47;31.60;;;13.25;;
66095;SDS011;53861;53.422;14.530;2024-03-08T06:53:14;32.67;;;13.40;;
66095;SDS011;53861;53.422;14.530;2024-03-08T06:55:44;35.03;;;14.13;;
66095;SDS011;53861;53.422;14.530;2024-03-08T06:58:13;33.75;;;13.43;;
66095;SDS011;53861;53.422;14.530;2024-03-08T07:00:41;29.08;;;12.95;;
66095;SDS011;53861;53.422;14.530;2024-03-08T07:03:09;37.10;;;13.82;;
66095;SDS011;53861;53.422;14.530;2024-03-08T07:05:42;32.55;;;14.00;;
66095;SDS011;53861;53.422;14.530;2024-03-08T07:08:10;39.40;;;14.40;;
66095;SDS011;53861;53.422;14.530;2024-03-08T07:10:38;32.95;;;14.07;;
66095;SDS011;53861;53.422;14.530;2024-03-08T07:13:08;31.33;;;13.85;;
66095;SDS011;53861;53.422;14.530;2024-03-08T07:15:36;28.92;;;13.70;;
66095;SDS011;53861;53.422;14.530;2024-03-08T07:18:03;32.63;;;13.85;;
66095;SDS011;53861;53.422;14.530;2024-03-08T07:20:31;33.50;;;15.02;;
66095;SDS011;53861;53.422;14.530;2024-03-08T07:22:58;33.15;;;14.15;;
66095;SDS011;53861;53.422;14.530;2024-03-08T07:25:25;31.67;;;14.32;;
66095;SDS011;53861;53.422;14.530;2024-03-08T07:27:55;34.28;;;14.48;;
66095;SDS011;53861;53.422;14.530;2024-03-08T07:30:24;34.13;;;14.82;;
66095;SDS011;53861;53.422;14.530;2024-03-08T07:33:21;41.13;;;15.20;;
66095;SDS011;53861;53.422;14.530;2024-03-08T07:35:48;36.53;;;14.45;;
66095;SDS011;53861;53.422;14.530;2024-03-08T07:38:16;32.40;;;15.35;;
66095;SDS011;53861;53.422;14.530;2024-03-08T07:40:46;38.15;;;15.60;;
66095;SDS011;53861;53.422;14.530;2024-03-08T07:43:14;46.03;;;15.45;;
66095;SDS011;53861;53.422;14.530;2024-03-08T07:45:42;35.17;;;15.65;;
66095;SDS011;53861;53.422;14.530;2024-03-08T07:48:10;40.15;;;15.05;;
66095;SDS011;53861;53.422;14.530;2024-03-08T07:50:38;30.85;;;14.52;;
66095;SDS011;53861;53.422;14.530;2024-03-08T07:53:06;38.45;;;15.57;;
66095;SDS011;53861;53.422;14.530;2024-03-08T07:55:33;39.10;;;16.17;;
66095;SDS011;53861;53.422;14.530;2024-03-08T07:58:00;35.17;;;16.20;;
66095;SDS011;53861;53.422;14.530;2024-03-08T08:00:28;33.55;;;15.60;;
66095;SDS011;53861;53.422;14.530;2024-03-08T08:02:58;40.70;;;17.60;;
66095;SDS011;53861;53.422;14.530;2024-03-08T08:05:25;36.30;;;16.20;;
66095;SDS011;53861;53.422;14.530;2024-03-08T08:07:52;49.60;;;18.95;;
66095;SDS011;53861;53.422;14.530;2024-03-08T08:10:20;35.53;;;16.30;;
66095;SDS011;53861;53.422;14.530;2024-03-08T08:12:48;44.33;;;15.45;;
66095;SDS011;53861;53.422;14.530;2024-03-08T08:15:15;44.45;;;16.17;;
66095;SDS011;53861;53.422;14.530;2024-03-08T08:17:43;32.00;;;15.20;;
66095;SDS011;53861;53.422;14.530;2024-03-08T08:20:12;39.83;;;15.70;;
66095;SDS011;53861;53.422;14.530;2024-03-08T08:22:39;35.25;;;15.73;;
66095;SDS011;53861;53.422;14.530;2024-03-08T08:25:07;40.83;;;16.77;;
66095;SDS011;53861;53.422;14.530;2024-03-08T08:27:34;41.92;;;15.27;;
66095;SDS011;53861;53.422;14.530;2024-03-08T08:30:04;38.67;;;17.08;;
66095;SDS011;53861;53.422;14.530;2024-03-08T08:32:33;46.17;;;22.23;;
66095;SDS011;53861;53.422;14.530;2024-03-08T08:35:02;42.72;;;17.00;;
66095;SDS011;53861;53.422;14.530;2024-03-08T08:37:31;33.25;;;16.77;;
66095;SDS011;53861;53.422;14.530;2024-03-08T08:40:01;29.85;;;15.70;;
66095;SDS011;53861;53.422;14.530;2024-03-08T08:42:31;37.13;;;16.95;;
66095;SDS011;53861;53.422;14.530;2024-03-08T08:44:58;48.45;;;18.80;;
66095;SDS011;53861;53.422;14.530;2024-03-08T08:47:27;41.80;;;15.68;;
66095;SDS011;53861;53.422;14.530;2024-03-08T08:49:54;27.50;;;14.80;;
66095;SDS011;53861;53.422;14.530;2024-03-08T08:52:21;38.17;;;15.93;;
66095;SDS011;53861;53.422;14.530;2024-03-08T08:54:50;37.83;;;15.90;;
66095;SDS011;53861;53.422;14.530;2024-03-08T08:57:17;26.20;;;14.02;;
66095;SDS011;53861;53.422;14.530;2024-03-08T08:59:44;29.83;;;14.27;;
66095;SDS011;53861;53.422;14.530;2024-03-08T09:02:12;32.10;;;15.02;;
66095;SDS011;53861;53.422;14.530;2024-03-08T09:04:42;29.77;;;14.70;;
66095;SDS011;53861;53.422;14.530;2024-03-08T09:07:10;28.10;;;15.00;;
66095;SDS011;53861;53.422;14.530;2024-03-08T09:09:41;28.55;;;14.65;;
66095;SDS011;53861;53.422;14.530;2024-03-08T09:12:10;27.27;;;15.15;;
66095;SDS011;53861;53.422;14.530;2024-03-08T09:14:39;32.30;;;15.75;;
66095;SDS011;53861;53.422;14.530;2024-03-08T09:17:06;33.08;;;16.73;;
66095;SDS011;53861;53.422;14.530;2024-03-08T09:19:34;33.25;;;15.23;;
66095;SDS011;53861;53.422;14.530;2024-03-08T09:22:02;27.15;;;14.77;;
66095;SDS011;53861;53.422;14.530;2024-03-08T09:24:30;30.10;;;16.42;;
66095;SDS011;53861;53.422;14.530;2024-03-08T09:26:57;34.83;;;16.10;;
66095;SDS011;53861;53.422;14.530;2024-03-08T09:29:26;29.98;;;16.05;;
66095;SDS011;53861;53.422;14.530;2024-03-08T09:31:53;29.40;;;16.13;;
66095;SDS011;53861;53.422;14.530;2024-03-08T09:34:21;32.05;;;15.85;;
66095;SDS011;53861;53.422;14.530;2024-03-08T09:36:49;29.90;;;15.55;;
66095;SDS011;53861;53.422;14.530;2024-03-08T09:39:17;29.33;;;16.23;;
66095;SDS011;53861;53.422;14.530;2024-03-08T09:41:46;27.90;;;15.32;;
66095;SDS011;53861;53.422;14.530;2024-03-08T09:44:15;32.58;;;17.10;;
66095;SDS011;53861;53.422;14.530;2024-03-08T09:46:44;28.05;;;15.20;;
66095;SDS011;53861;53.422;14.530;2024-03-08T09:49:13;30.33;;;15.95;;
66095;SDS011;53861;53.422;14.530;2024-03-08T09:51:40;31.50;;;15.68;;
66095;SDS011;53861;53.422;14.530;2024-03-08T09:54:07;25.27;;;14.20;;
66095;SDS011;53861;53.422;14.530;2024-03-08T09:56:35;25.40;;;14.27;;
66095;SDS011;53861;53.422;14.530;2024-03-08T09:59:02;31.25;;;15.80;;
66095;SDS011;53861;53.422;14.530;2024-03-08T10:04:40;29.17;;;15.48;;
66095;SDS011;53861;53.422;14.530;2024-03-08T10:07:08;30.33;;;15.95;;
66095;SDS011;53861;53.422;14.530;2024-03-08T10:09:36;32.25;;;15.68;;
66095;SDS011;53861;53.422;14.530;2024-03-08T10:12:04;29.50;;;14.85;;
66095;SDS011;53861;53.422;14.530;2024-03-08T10:14:31;27.25;;;14.73;;
66095;SDS011;53861;53.422;14.530;2024-03-08T10:16:59;26.63;;;14.38;;
66095;SDS011;53861;53.422;14.530;2024-03-08T10:19:28;27.20;;;15.25;;
66095;SDS011;53861;53.422;14.530;2024-03-08T10:21:55;27.13;;;13.80;;
66095;SDS011;53861;53.422;14.530;2024-03-08T10:24:24;33.25;;;15.15;;
66095;SDS011;53861;53.422;14.530;2024-03-08T10:26:52;28.33;;;14.43;;
66095;SDS011;53861;53.422;14.530;2024-03-08T10:29:20;29.08;;;14.27;;
66095;SDS011;53861;53.422;14.530;2024-03-08T10:31:47;24.30;;;13.30;;
66095;SDS011;53861;53.422;14.530;2024-03-08T10:34:17;24.48;;;13.55;;
66095;SDS011;53861;53.422;14.530;2024-03-08T10:36:46;22.77;;;13.60;;
66095;SDS011;53861;53.422;14.530;2024-03-08T10:39:19;31.20;;;14.10;;
66095;SDS011;53861;53.422;14.530;2024-03-08T10:41:51;28.02;;;14.60;;
66095;SDS011;53861;53.422;14.530;2024-03-08T10:44:30;28.63;;;13.55;;
66095;SDS011;53861;53.422;14.530;2024-03-08T10:47:09;22.55;;;13.40;;
66095;SDS011;53861;53.422;14.530;2024-03-08T10:49:49;30.60;;;13.50;;
66095;SDS011;53861;53.422;14.530;2024-03-08T10:52:22;25.73;;;13.30;;
66095;SDS011;53861;53.422;14.530;2024-03-08T10:54:50;29.80;;;14.27;;
66095;SDS011;53861;53.422;14.530;2024-03-08T10:57:21;37.05;;;15.50;;
66095;SDS011;53861;53.422;14.530;2024-03-08T10:59:49;21.30;;;10.88;;
66095;SDS011;53861;53.422;14.530;2024-03-08T11:02:17;18.63;;;9.88;;
66095;SDS011;53861;53.422;14.530;2024-03-08T11:04:46;19.90;;;9.40;;
66095;SDS011;53861;53.422;14.530;2024-03-08T11:07:15;19.10;;;8.93;;
66095;SDS011;53861;53.422;14.530;2024-03-08T11:09:48;17.15;;;9.60;;
66095;SDS011;53861;53.422;14.530;2024-03-08T11:12:18;21.35;;;11.35;;
66095;SDS011;53861;53.422;14.530;2024-03-08T11:14:47;30.38;;;11.18;;
66095;SDS011;53861;53.422;14.530;2024-03-08T11:17:16;17.25;;;8.40;;
66095;SDS011;53861;53.422;14.530;2024-03-08T11:19:48;16.08;;;9.10;;
66095;SDS011;53861;53.422;14.530;2024-03-08T11:22:21;18.85;;;10.60;;
66095;SDS011;53861;53.422;14.530;2024-03-08T11:24:51;19.67;;;9.63;;
66095;SDS011;53861;53.422;14.530;2024-03-08T11:27:19;18.50;;;10.38;;
66095;SDS011;53861;53.422;14.530;2024-03-08T11:29:59;22.30;;;10.18;;
66095;SDS011;53861;53.422;14.530;2024-03-08T11:32:34;19.67;;;10.35;;
66095;SDS011;53861;53.422;14.530;2024-03-08T11:35:03;16.30;;;9.57;;
66095;SDS011;53861;53.422;14.530;2024-03-08T11:37:34;20.00;;;11.87;;
66095;SDS011;53861;53.422;14.530;2024-03-08T11:40:08;25.45;;;11.85;;
66095;SDS011;53861;53.422;14.530;2024-03-08T11:42:43;22.50;;;11.10;;
66095;SDS011;53861;53.422;14.530;2024-03-08T11:45:13;18.48;;;10.55;;
66095;SDS011;53861;53.422;14.530;2024-03-08T11:47:41;23.65;;;11.85;;
66095;SDS011;53861;53.422;14.530;2024-03-08T11:50:11;22.83;;;10.52;;
66095;SDS011;53861;53.422;14.530;2024-03-08T11:52:41;22.05;;;10.77;;
66095;SDS011;53861;53.422;14.530;2024-03-08T11:55:11;26.48;;;14.05;;
66095;SDS011;53861;53.422;14.530;2024-03-08T11:57:39;18.13;;;9.88;;
66095;SDS011;53861;53.422;14.530;2024-03-08T12:00:14;16.10;;;9.55;;
66095;SDS011;53861;53.422;14.530;2024-03-08T12:03:00;21.77;;;10.90;;
66095;SDS011;53861;53.422;14.530;2024-03-08T12:05:28;20.25;;;10.57;;
66095;SDS011;53861;53.422;14.530;2024-03-08T12:07:57;19.48;;;9.43;;
66095;SDS011;53861;53.422;14.530;2024-03-08T12:10:26;23.08;;;9.55;;
66095;SDS011;53861;53.422;14.530;2024-03-08T12:12:54;16.92;;;8.55;;
66095;SDS011;53861;53.422;14.530;2024-03-08T12:15:24;22.08;;;9.63;;
66095;SDS011;53861;53.422;14.530;2024-03-08T12:17:53;18.23;;;10.10;;
66095;SDS011;53861;53.422;14.530;2024-03-08T12:20:22;17.45;;;9.73;;
66095;SDS011;53861;53.422;14.530;2024-03-08T12:22:51;27.88;;;12.25;;
66095;SDS011;53861;53.422;14.530;2024-03-08T12:25:18;26.17;;;11.40;;
66095;SDS011;53861;53.422;14.530;2024-03-08T12:27:47;20.35;;;10.40;;
66095;SDS011;53861;53.422;14.530;2024-03-08T12:30:19;19.17;;;10.27;;
66095;SDS011;53861;53.422;14.530;2024-03-08T12:32:51;18.55;;;9.38;;
66095;SDS011;53861;53.422;14.530;2024-03-08T12:35:22;20.30;;;10.65;;
66095;SDS011;53861;53.422;14.530;2024-03-08T12:37:56;20.52;;;11.10;;
66095;SDS011;53861;53.422;14.530;2024-03-08T12:40:27;18.30;;;9.43;;
66095;SDS011;53861;53.422;14.530;2024-03-08T12:42:57;17.95;;;8.35;;
66095;SDS011;53861;53.422;14.530;2024-03-08T12:45:24;14.25;;;7.80;;
66095;SDS011;53861;53.422;14.530;2024-03-08T12:47:52;18.75;;;9.07;;
66095;SDS011;53861;53.422;14.530;2024-03-08T12:50:20;15.30;;;8.75;;
66095;SDS011;53861;53.422;14.530;2024-03-08T12:52:48;20.02;;;9.52;;
66095;SDS011;53861;53.422;14.530;2024-03-08T12:55:15;16.70;;;10.00;;
66095;SDS011;53861;53.422;14.530;2024-03-08T12:57:44;17.13;;;9.10;;
66095;SDS011;53861;53.422;14.530;2024-03-08T13:00:14;20.30;;;8.90;;
66095;SDS011;53861;53.422;14.530;2024-03-08T13:02:44;20.45;;;10.20;;
66095;SDS011;53861;53.422;14.530;2024-03-08T13:05:11;22.35;;;10.30;;
66095;SDS011;53861;53.422;14.530;2024-03-08T13:07:39;18.83;;;9.40;;
66095;SDS011;53861;53.422;14.530;2024-03-08T13:10:11;18.50;;;9.02;;
66095;SDS011;53861;53.422;14.530;2024-03-08T13:12:40;17.08;;;9.18;;
66095;SDS011;53861;53.422;14.530;2024-03-08T13:15:08;17.25;;;9.38;;
66095;SDS011;53861;53.422;14.530;2024-03-08T13:17:38;20.45;;;8.98;;
66095;SDS011;53861;53.422;14.530;2024-03-08T13:20:07;17.92;;;9.40;;
66095;SDS011;53861;53.422;14.530;2024-03-08T13:22:35;18.02;;;9.38;;
66095;SDS011;53861;53.422;14.530;2024-03-08T13:25:02;22.08;;;9.45;;
66095;SDS011;53861;53.422;14.530;2024-03-08T13:27:30;17.10;;;8.30;;
66095;SDS011;53861;53.422;14.530;2024-03-08T13:29:57;16.80;;;8.98;;
66095;SDS011;53861;53.422;14.530;2024-03-08T13:32:25;19.45;;;9.07;;
66095;SDS011;53861;53.422;14.530;2024-03-08T13:34:53;16.33;;;8.95;;
66095;SDS011;53861;53.422;14.530;2024-03-08T13:37:21;17.13;;;8.85;;
66095;SDS011;53861;53.422;14.530;2024-03-08T13:39:48;17.25;;;8.88;;
66095;SDS011;53861;53.422;14.530;2024-03-08T13:42:15;20.58;;;8.82;;
66095;SDS011;53861;53.422;14.530;2024-03-08T13:44:43;17.85;;;9.13;;
66095;SDS011;53861;53.422;14.530;2024-03-08T13:47:11;16.25;;;8.23;;
66095;SDS011;53861;53.422;14.530;2024-03-08T13:49:39;21.17;;;9.95;;
66095;SDS011;53861;53.422;14.530;2024-03-08T13:52:07;23.88;;;9.20;;
66095;SDS011;53861;53.422;14.530;2024-03-08T13:54:35;19.02;;;8.80;;
66095;SDS011;53861;53.422;14.530;2024-03-08T13:57:02;18.98;;;8.23;;
66095;SDS011;53861;53.422;14.530;2024-03-08T13:59:30;15.27;;;8.43;;
66095;SDS011;53861;53.422;14.530;2024-03-08T14:01:58;16.45;;;8.57;;
66095;SDS011;53861;53.422;14.530;2024-03-08T14:04:27;15.18;;;8.23;;
66095;SDS011;53861;53.422;14.530;2024-03-08T14:06:54;14.10;;;8.13;;
66095;SDS011;53861;53.422;14.530;2024-03-08T14:09:28;20.83;;;9.10;;
66095;SDS011;53861;53.422;14.530;2024-03-08T14:11:56;16.92;;;8.43;;
66095;SDS011;53861;53.422;14.530;2024-03-08T14:14:24;15.48;;;8.80;;
66095;SDS011;53861;53.422;14.530;2024-03-08T14:16:51;17.35;;;9.52;;
66095;SDS011;53861;53.422;14.530;2024-03-08T14:19:22;17.30;;;9.35;;
66095;SDS011;53861;53.422;14.530;2024-03-08T14:21:49;17.90;;;8.70;;